sensor_id;sensor_type;location;lat;lon;timestamp;P1;durP1;ratioP1;P2;durP2;ratioP2
11921;SDS011;6021;51.182;3.160;2022-11-14T00:01:12;24.93;;;22.63;;
11921;SDS011;6021;51.182;3.160;2022-11-14T00:03:41;23.67;;;21.50;;
11921;SDS011;6021;51.182;3.160;2022-11-14T00:06:11;26.93;;;24.40;;
11921;SDS011;6021;51.182;3.160;2022-11-14T00:08:39;26.27;;;23.77;;
11921;SDS011;6021;51.182;3.160;2022-11-14T00:11:07;25.53;;;23.00;;
11921;SDS011;6021;51.182;3.160;2022-11-14T00:13:36;24.40;;;22.00;;
11921;SDS011;6021;51.182;3.160;2022-11-14T00:16:04;22.80;;;20.60;;
11921;SDS011;6021;51.182;3.160;2022-11-14T00:18:32;22.20;;;20.20;;
11921;SDS011;6021;51.182;3.160;2022-11-14T00:21:01;22.37;;;20.20;;
11921;SDS011;6021;51.182;3.160;2022-11-14T00:23:29;17.90;;;16.30;;
11921;SDS011;6021;51.182;3.160;2022-11-14T00:25:57;21.07;;;19.17;;
11921;SDS011;6021;51.182;3.160;2022-11-14T00:28:26;20.87;;;18.93;;
11921;SDS011;6021;51.182;3.160;2022-11-14T00:30:54;21.63;;;19.70;;
11921;SDS011;6021;51.182;3.160;2022-11-14T00:33:22;20.27;;;18.47;;
11921;SDS011;6021;51.182;3.160;2022-11-14T00:35:51;20.67;;;18.77;;
11921;SDS011;6021;51.182;3.160;2022-11-14T00:38:21;22.03;;;19.93;;
11921;SDS011;6021;51.182;3.160;2022-11-14T00:40:49;22.20;;;20.20;;
11921;SDS011;6021;51.182;3.160;2022-11-14T00:43:18;23.07;;;20.97;;
11921;SDS011;6021;51.182;3.160;2022-11-14T00:45:46;22.00;;;19.83;;
11921;SDS011;6021;51.182;3.160;2022-11-14T00:48:15;24.17;;;21.97;;
11921;SDS011;6021;51.182;3.160;2022-11-14T00:50:43;25.20;;;22.80;;
11921;SDS011;6021;51.182;3.160;2022-11-14T00:53:12;24.50;;;22.10;;
11921;SDS011;6021;51.182;3.160;2022-11-14T00:55:41;24.97;;;22.60;;
11921;SDS011;6021;51.182;3.160;2022-11-14T00:58:09;25.13;;;22.70;;
11921;SDS011;6021;51.182;3.160;2022-11-14T01:00:38;29.47;;;26.77;;
11921;SDS011;6021;51.182;3.160;2022-11-14T01:03:06;27.33;;;24.70;;
11921;SDS011;6021;51.182;3.160;2022-11-14T01:05:41;26.80;;;24.27;;
11921;SDS011;6021;51.182;3.160;2022-11-14T01:08:12;29.00;;;26.13;;
11921;SDS011;6021;51.182;3.160;2022-11-14T01:10:42;27.53;;;25.03;;
11921;SDS011;6021;51.182;3.160;2022-11-14T01:13:11;29.63;;;26.93;;
11921;SDS011;6021;51.182;3.160;2022-11-14T01:15:45;29.20;;;26.60;;
11921;SDS011;6021;51.182;3.160;2022-11-14T01:18:15;29.47;;;26.87;;
11921;SDS011;6021;51.182;3.160;2022-11-14T01:20:46;27.17;;;24.87;;
11921;SDS011;6021;51.182;3.160;2022-11-14T01:23:15;26.23;;;23.83;;
11921;SDS011;6021;51.182;3.160;2022-11-14T01:25:43;26.60;;;24.17;;
11921;SDS011;6021;51.182;3.160;2022-11-14T01:28:13;27.13;;;24.63;;
11921;SDS011;6021;51.182;3.160;2022-11-14T01:30:43;27.03;;;24.53;;
11921;SDS011;6021;51.182;3.160;2022-11-14T01:33:11;28.27;;;25.67;;
11921;SDS011;6021;51.182;3.160;2022-11-14T01:35:40;28.37;;;25.77;;
11921;SDS011;6021;51.182;3.160;2022-11-14T01:38:09;26.43;;;23.97;;
11921;SDS011;6021;51.182;3.160;2022-11-14T01:40:43;30.83;;;27.93;;
11921;SDS011;6021;51.182;3.160;2022-11-14T01:48:25;24.37;;;22.13;;
11921;SDS011;6021;51.182;3.160;2022-11-14T01:51:11;25.60;;;23.13;;
11921;SDS011;6021;51.182;3.160;2022-11-14T01:53:42;28.67;;;25.83;;
11921;SDS011;6021;51.182;3.160;2022-11-14T01:56:13;29.00;;;25.93;;
11921;SDS011;6021;51.182;3.160;2022-11-14T01:58:45;31.60;;;28.40;;
11921;SDS011;6021;51.182;3.160;2022-11-14T02:01:15;29.50;;;26.70;;
11921;SDS011;6021;51.182;3.160;2022-11-14T02:03:43;25.83;;;23.40;;
11921;SDS011;6021;51.182;3.160;2022-11-14T02:06:15;24.03;;;21.83;;
11921;SDS011;6021;51.182;3.160;2022-11-14T02:08:46;25.77;;;23.47;;
11921;SDS011;6021;51.182;3.160;2022-11-14T02:11:16;24.50;;;22.30;;
11921;SDS011;6021;51.182;3.160;2022-11-14T02:13:44;23.80;;;21.60;;
11921;SDS011;6021;51.182;3.160;2022-11-14T02:16:13;23.03;;;20.93;;
11921;SDS011;6021;51.182;3.160;2022-11-14T02:18:42;24.17;;;21.93;;
11921;SDS011;6021;51.182;3.160;2022-11-14T02:21:10;22.97;;;20.87;;
11921;SDS011;6021;51.182;3.160;2022-11-14T02:23:38;23.70;;;21.50;;
11921;SDS011;6021;51.182;3.160;2022-11-14T02:26:06;25.20;;;22.60;;
11921;SDS011;6021;51.182;3.160;2022-11-14T02:28:35;24.67;;;22.27;;
11921;SDS011;6021;51.182;3.160;2022-11-14T02:31:03;25.83;;;23.43;;
11921;SDS011;6021;51.182;3.160;2022-11-14T02:33:31;25.90;;;23.40;;
11921;SDS011;6021;51.182;3.160;2022-11-14T02:36:00;25.67;;;23.27;;
11921;SDS011;6021;51.182;3.160;2022-11-14T02:38:28;23.47;;;21.30;;
11921;SDS011;6021;51.182;3.160;2022-11-14T02:40:58;25.10;;;22.80;;
11921;SDS011;6021;51.182;3.160;2022-11-14T02:43:26;24.53;;;22.30;;
11921;SDS011;6021;51.182;3.160;2022-11-14T02:45:55;26.07;;;23.67;;
11921;SDS011;6021;51.182;3.160;2022-11-14T02:48:23;24.93;;;22.63;;
11921;SDS011;6021;51.182;3.160;2022-11-14T02:50:52;26.23;;;23.83;;
11921;SDS011;6021;51.182;3.160;2022-11-14T02:53:20;26.80;;;24.40;;
11921;SDS011;6021;51.182;3.160;2022-11-14T02:55:48;25.80;;;23.50;;
11921;SDS011;6021;51.182;3.160;2022-11-14T02:58:17;26.40;;;24.03;;
11921;SDS011;6021;51.182;3.160;2022-11-14T03:00:45;23.87;;;21.67;;
11921;SDS011;6021;51.182;3.160;2022-11-14T03:03:13;25.33;;;23.03;;
11921;SDS011;6021;51.182;3.160;2022-11-14T03:05:42;26.27;;;23.83;;
11921;SDS011;6021;51.182;3.160;2022-11-14T03:08:10;29.00;;;26.30;;
11921;SDS011;6021;51.182;3.160;2022-11-14T03:10:39;29.97;;;26.97;;
11921;SDS011;6021;51.182;3.160;2022-11-14T03:13:07;31.53;;;28.43;;
11921;SDS011;6021;51.182;3.160;2022-11-14T03:15:36;30.10;;;27.50;;
11921;SDS011;6021;51.182;3.160;2022-11-14T03:18:04;31.33;;;28.53;;
11921;SDS011;6021;51.182;3.160;2022-11-14T03:20:33;30.27;;;27.57;;
11921;SDS011;6021;51.182;3.160;2022-11-14T03:23:01;30.77;;;28.17;;
11921;SDS011;6021;51.182;3.160;2022-11-14T03:25:30;35.40;;;32.40;;
11921;SDS011;6021;51.182;3.160;2022-11-14T03:27:58;33.57;;;30.53;;
11921;SDS011;6021;51.182;3.160;2022-11-14T03:30:26;36.43;;;33.33;;
11921;SDS011;6021;51.182;3.160;2022-11-14T03:32:55;35.17;;;32.07;;
11921;SDS011;6021;51.182;3.160;2022-11-14T03:35:23;37.37;;;34.07;;
11921;SDS011;6021;51.182;3.160;2022-11-14T03:37:52;37.03;;;33.83;;
11921;SDS011;6021;51.182;3.160;2022-11-14T03:40:20;39.10;;;35.43;;
11921;SDS011;6021;51.182;3.160;2022-11-14T03:42:48;37.77;;;34.30;;
11921;SDS011;6021;51.182;3.160;2022-11-14T03:45:17;40.50;;;36.90;;
11921;SDS011;6021;51.182;3.160;2022-11-14T03:47:45;41.03;;;36.90;;
11921;SDS011;6021;51.182;3.160;2022-11-14T03:50:13;41.83;;;37.80;;
11921;SDS011;6021;51.182;3.160;2022-11-14T03:52:41;42.20;;;38.10;;
11921;SDS011;6021;51.182;3.160;2022-11-14T03:55:10;42.93;;;38.70;;
11921;SDS011;6021;51.182;3.160;2022-11-14T03:57:38;41.10;;;37.07;;
11921;SDS011;6021;51.182;3.160;2022-11-14T04:00:07;42.17;;;37.70;;
11921;SDS011;6021;51.182;3.160;2022-11-14T04:02:36;41.73;;;37.40;;
11921;SDS011;6021;51.182;3.160;2022-11-14T04:05:04;40.23;;;36.23;;
11921;SDS011;6021;51.182;3.160;2022-11-14T04:07:32;42.00;;;37.80;;
11921;SDS011;6021;51.182;3.160;2022-11-14T04:10:01;39.87;;;35.87;;
11921;SDS011;6021;51.182;3.160;2022-11-14T04:12:29;38.90;;;35.00;;
11921;SDS011;6021;51.182;3.160;2022-11-14T04:14:58;36.93;;;33.30;;
11921;SDS011;6021;51.182;3.160;2022-11-14T04:17:26;37.07;;;33.40;;
11921;SDS011;6021;51.182;3.160;2022-11-14T04:19:54;41.20;;;36.60;;
11921;SDS011;6021;51.182;3.160;2022-11-14T04:22:23;41.37;;;36.93;;
11921;SDS011;6021;51.182;3.160;2022-11-14T04:24:51;56.30;;;41.77;;
11921;SDS011;6021;51.182;3.160;2022-11-14T04:27:19;39.33;;;35.23;;
11921;SDS011;6021;51.182;3.160;2022-11-14T04:29:47;39.53;;;35.30;;
11921;SDS011;6021;51.182;3.160;2022-11-14T04:32:16;60.97;;;39.93;;
11921;SDS011;6021;51.182;3.160;2022-11-14T04:34:44;45.67;;;36.53;;
11921;SDS011;6021;51.182;3.160;2022-11-14T04:37:12;49.27;;;40.90;;
11921;SDS011;6021;51.182;3.160;2022-11-14T04:39:41;45.97;;;41.00;;
11921;SDS011;6021;51.182;3.160;2022-11-14T04:42:09;43.40;;;39.00;;
11921;SDS011;6021;51.182;3.160;2022-11-14T04:44:37;44.03;;;39.43;;
11921;SDS011;6021;51.182;3.160;2022-11-14T04:47:06;45.80;;;41.30;;
11921;SDS011;6021;51.182;3.160;2022-11-14T04:49:35;46.20;;;41.70;;
11921;SDS011;6021;51.182;3.160;2022-11-14T04:52:03;47.83;;;42.27;;
11921;SDS011;6021;51.182;3.160;2022-11-14T04:54:32;52.13;;;43.37;;
11921;SDS011;6021;51.182;3.160;2022-11-14T04:57:00;48.03;;;41.03;;
11921;SDS011;6021;51.182;3.160;2022-11-14T04:59:28;55.70;;;45.17;;
11921;SDS011;6021;51.182;3.160;2022-11-14T05:01:56;56.93;;;46.60;;
11921;SDS011;6021;51.182;3.160;2022-11-14T05:04:25;66.53;;;49.70;;
11921;SDS011;6021;51.182;3.160;2022-11-14T05:06:53;54.20;;;48.70;;
11921;SDS011;6021;51.182;3.160;2022-11-14T05:09:21;66.93;;;50.80;;
11921;SDS011;6021;51.182;3.160;2022-11-14T05:11:50;66.07;;;51.23;;
11921;SDS011;6021;51.182;3.160;2022-11-14T05:14:18;63.87;;;52.53;;
11921;SDS011;6021;51.182;3.160;2022-11-14T05:16:46;58.30;;;52.03;;
11921;SDS011;6021;51.182;3.160;2022-11-14T05:19:15;60.23;;;53.93;;
11921;SDS011;6021;51.182;3.160;2022-11-14T05:21:43;59.17;;;52.93;;
11921;SDS011;6021;51.182;3.160;2022-11-14T05:24:11;60.93;;;54.53;;
11921;SDS011;6021;51.182;3.160;2022-11-14T05:26:40;56.47;;;50.97;;
11921;SDS011;6021;51.182;3.160;2022-11-14T05:29:08;60.37;;;54.27;;
11921;SDS011;6021;51.182;3.160;2022-11-14T05:31:36;60.47;;;54.07;;
11921;SDS011;6021;51.182;3.160;2022-11-14T05:34:05;57.73;;;51.63;;
11921;SDS011;6021;51.182;3.160;2022-11-14T05:36:33;56.07;;;50.47;;
11921;SDS011;6021;51.182;3.160;2022-11-14T05:39:01;57.03;;;51.37;;
11921;SDS011;6021;51.182;3.160;2022-11-14T05:41:30;56.17;;;50.67;;
11921;SDS011;6021;51.182;3.160;2022-11-14T05:43:58;58.57;;;52.47;;
11921;SDS011;6021;51.182;3.160;2022-11-14T05:46:27;57.70;;;52.10;;
11921;SDS011;6021;51.182;3.160;2022-11-14T05:48:55;53.83;;;48.57;;
11921;SDS011;6021;51.182;3.160;2022-11-14T05:51:23;53.00;;;47.90;;
11921;SDS011;6021;51.182;3.160;2022-11-14T05:53:52;40.73;;;37.03;;
11921;SDS011;6021;51.182;3.160;2022-11-14T05:56:21;46.63;;;42.20;;
11921;SDS011;6021;51.182;3.160;2022-11-14T05:58:49;34.60;;;31.50;;
11921;SDS011;6021;51.182;3.160;2022-11-14T06:01:18;32.77;;;29.77;;
11921;SDS011;6021;51.182;3.160;2022-11-14T06:03:48;30.13;;;27.23;;
11921;SDS011;6021;51.182;3.160;2022-11-14T06:06:17;32.97;;;29.73;;
11921;SDS011;6021;51.182;3.160;2022-11-14T06:08:47;33.00;;;29.70;;
11921;SDS011;6021;51.182;3.160;2022-11-14T06:11:17;27.63;;;24.93;;
11921;SDS011;6021;51.182;3.160;2022-11-14T06:13:46;30.77;;;27.50;;
11921;SDS011;6021;51.182;3.160;2022-11-14T06:16:15;32.93;;;29.73;;
11921;SDS011;6021;51.182;3.160;2022-11-14T06:18:45;31.57;;;28.27;;
11921;SDS011;6021;51.182;3.160;2022-11-14T06:21:15;30.77;;;27.53;;
11921;SDS011;6021;51.182;3.160;2022-11-14T06:23:45;31.10;;;27.80;;
11921;SDS011;6021;51.182;3.160;2022-11-14T06:26:23;27.43;;;24.63;;
11921;SDS011;6021;51.182;3.160;2022-11-14T06:28:55;28.57;;;25.57;;
11921;SDS011;6021;51.182;3.160;2022-11-14T06:31:24;30.97;;;27.73;;
11921;SDS011;6021;51.182;3.160;2022-11-14T06:33:53;29.20;;;26.20;;
11921;SDS011;6021;51.182;3.160;2022-11-14T06:36:22;27.57;;;24.67;;
11921;SDS011;6021;51.182;3.160;2022-11-14T06:38:50;29.87;;;26.70;;
11921;SDS011;6021;51.182;3.160;2022-11-14T06:41:19;30.07;;;26.97;;
11921;SDS011;6021;51.182;3.160;2022-11-14T06:43:50;30.53;;;27.33;;
11921;SDS011;6021;51.182;3.160;2022-11-14T06:46:21;30.53;;;27.43;;
11921;SDS011;6021;51.182;3.160;2022-11-14T06:48:50;31.20;;;28.00;;
11921;SDS011;6021;51.182;3.160;2022-11-14T06:51:18;31.03;;;27.73;;
11921;SDS011;6021;51.182;3.160;2022-11-14T06:53:46;29.87;;;26.77;;
11921;SDS011;6021;51.182;3.160;2022-11-14T06:56:15;33.33;;;29.77;;
11921;SDS011;6021;51.182;3.160;2022-11-14T06:58:46;32.83;;;29.37;;
11921;SDS011;6021;51.182;3.160;2022-11-14T07:01:16;32.80;;;29.30;;
11921;SDS011;6021;51.182;3.160;2022-11-14T07:03:49;33.17;;;29.67;;
11921;SDS011;6021;51.182;3.160;2022-11-14T07:06:19;34.93;;;31.23;;
11921;SDS011;6021;51.182;3.160;2022-11-14T07:08:55;37.17;;;32.77;;
11921;SDS011;6021;51.182;3.160;2022-11-14T07:11:26;35.23;;;30.90;;
11921;SDS011;6021;51.182;3.160;2022-11-14T07:13:56;33.67;;;30.10;;
11921;SDS011;6021;51.182;3.160;2022-11-14T07:16:27;37.70;;;31.50;;
11921;SDS011;6021;51.182;3.160;2022-11-14T07:18:57;35.70;;;31.27;;
11921;SDS011;6021;51.182;3.160;2022-11-14T07:21:26;37.43;;;33.20;;
11921;SDS011;6021;51.182;3.160;2022-11-14T07:23:56;38.27;;;33.23;;
11921;SDS011;6021;51.182;3.160;2022-11-14T07:26:25;40.63;;;34.73;;
11921;SDS011;6021;51.182;3.160;2022-11-14T07:28:53;36.27;;;32.33;;
11921;SDS011;6021;51.182;3.160;2022-11-14T07:31:21;38.70;;;33.83;;
11921;SDS011;6021;51.182;3.160;2022-11-14T07:33:50;37.93;;;33.80;;
11921;SDS011;6021;51.182;3.160;2022-11-14T07:36:18;41.83;;;34.63;;
11921;SDS011;6021;51.182;3.160;2022-11-14T07:38:46;38.27;;;32.80;;
11921;SDS011;6021;51.182;3.160;2022-11-14T07:41:15;41.20;;;33.47;;
11921;SDS011;6021;51.182;3.160;2022-11-14T07:43:44;38.27;;;32.70;;
11921;SDS011;6021;51.182;3.160;2022-11-14T07:46:13;38.27;;;32.50;;
11921;SDS011;6021;51.182;3.160;2022-11-14T07:48:43;42.47;;;33.63;;
11921;SDS011;6021;51.182;3.160;2022-11-14T07:51:15;41.67;;;33.70;;
11921;SDS011;6021;51.182;3.160;2022-11-14T07:53:45;43.27;;;35.03;;
11921;SDS011;6021;51.182;3.160;2022-11-14T07:56:14;39.37;;;32.43;;
11921;SDS011;6021;51.182;3.160;2022-11-14T07:58:42;39.80;;;33.13;;
11921;SDS011;6021;51.182;3.160;2022-11-14T08:01:11;39.07;;;32.87;;
11921;SDS011;6021;51.182;3.160;2022-11-14T08:03:40;37.13;;;29.77;;
11921;SDS011;6021;51.182;3.160;2022-11-14T08:06:10;40.77;;;34.27;;
11921;SDS011;6021;51.182;3.160;2022-11-14T08:08:39;34.00;;;29.20;;
11921;SDS011;6021;51.182;3.160;2022-11-14T08:11:08;40.97;;;32.10;;
11921;SDS011;6021;51.182;3.160;2022-11-14T08:13:36;36.00;;;31.43;;
11921;SDS011;6021;51.182;3.160;2022-11-14T08:16:08;40.17;;;32.83;;
11921;SDS011;6021;51.182;3.160;2022-11-14T08:18:36;44.03;;;34.47;;
11921;SDS011;6021;51.182;3.160;2022-11-14T08:21:05;37.77;;;29.73;;
11921;SDS011;6021;51.182;3.160;2022-11-14T08:23:33;37.90;;;31.63;;
11921;SDS011;6021;51.182;3.160;2022-11-14T08:26:02;34.43;;;28.97;;
11921;SDS011;6021;51.182;3.160;2022-11-14T08:28:30;29.47;;;26.27;;
11921;SDS011;6021;51.182;3.160;2022-11-14T08:30:59;35.33;;;29.97;;
11921;SDS011;6021;51.182;3.160;2022-11-14T08:33:28;34.63;;;28.83;;
11921;SDS011;6021;51.182;3.160;2022-11-14T08:36:03;32.20;;;27.03;;
11921;SDS011;6021;51.182;3.160;2022-11-14T08:38:33;36.93;;;30.17;;
11921;SDS011;6021;51.182;3.160;2022-11-14T08:41:02;32.33;;;26.80;;
11921;SDS011;6021;51.182;3.160;2022-11-14T08:43:31;36.43;;;29.17;;
11921;SDS011;6021;51.182;3.160;2022-11-14T08:46:00;35.57;;;29.97;;
11921;SDS011;6021;51.182;3.160;2022-11-14T08:48:30;47.63;;;30.20;;
11921;SDS011;6021;51.182;3.160;2022-11-14T08:51:07;39.77;;;28.80;;
11921;SDS011;6021;51.182;3.160;2022-11-14T08:53:32;46.47;;;30.03;;
11921;SDS011;6021;51.182;3.160;2022-11-14T08:56:01;36.17;;;29.40;;
11921;SDS011;6021;51.182;3.160;2022-11-14T08:58:30;42.63;;;30.83;;
11921;SDS011;6021;51.182;3.160;2022-11-14T09:01:05;43.27;;;32.23;;
11921;SDS011;6021;51.182;3.160;2022-11-14T09:03:30;36.47;;;28.93;;
11921;SDS011;6021;51.182;3.160;2022-11-14T09:06:00;47.37;;;33.73;;
11921;SDS011;6021;51.182;3.160;2022-11-14T09:08:29;41.80;;;30.60;;
11921;SDS011;6021;51.182;3.160;2022-11-14T09:11:01;51.27;;;32.30;;
11921;SDS011;6021;51.182;3.160;2022-11-14T09:13:32;50.13;;;32.47;;
11921;SDS011;6021;51.182;3.160;2022-11-14T09:16:01;38.87;;;30.63;;
11921;SDS011;6021;51.182;3.160;2022-11-14T09:18:29;40.67;;;30.90;;
11921;SDS011;6021;51.182;3.160;2022-11-14T09:21:01;43.10;;;32.03;;
11921;SDS011;6021;51.182;3.160;2022-11-14T09:23:31;37.77;;;29.30;;
11921;SDS011;6021;51.182;3.160;2022-11-14T09:26:06;44.57;;;32.33;;
11921;SDS011;6021;51.182;3.160;2022-11-14T09:28:36;46.43;;;32.03;;
11921;SDS011;6021;51.182;3.160;2022-11-14T09:31:05;45.57;;;32.47;;
11921;SDS011;6021;51.182;3.160;2022-11-14T09:33:36;39.40;;;29.53;;
11921;SDS011;6021;51.182;3.160;2022-11-14T09:36:05;41.57;;;31.77;;
11921;SDS011;6021;51.182;3.160;2022-11-14T09:38:35;36.13;;;30.20;;
11921;SDS011;6021;51.182;3.160;2022-11-14T09:41:44;43.97;;;31.93;;
11921;SDS011;6021;51.182;3.160;2022-11-14T09:46:35;32.17;;;26.63;;
11921;SDS011;6021;51.182;3.160;2022-11-14T09:52:13;33.37;;;28.07;;
11921;SDS011;6021;51.182;3.160;2022-11-14T09:54:52;32.17;;;26.67;;
11921;SDS011;6021;51.182;3.160;2022-11-14T09:57:22;32.80;;;27.23;;
11921;SDS011;6021;51.182;3.160;2022-11-14T09:59:52;36.17;;;28.10;;
11921;SDS011;6021;51.182;3.160;2022-11-14T10:05:15;39.17;;;28.00;;
11921;SDS011;6021;51.182;3.160;2022-11-14T10:13:25;38.30;;;28.60;;
11921;SDS011;6021;51.182;3.160;2022-11-14T10:21:42;37.43;;;28.60;;
11921;SDS011;6021;51.182;3.160;2022-11-14T10:24:24;35.13;;;29.60;;
11921;SDS011;6021;51.182;3.160;2022-11-14T10:26:51;37.57;;;28.87;;
11921;SDS011;6021;51.182;3.160;2022-11-14T10:34:59;38.50;;;30.47;;
11921;SDS011;6021;51.182;3.160;2022-11-14T10:37:39;33.63;;;28.87;;
11921;SDS011;6021;51.182;3.160;2022-11-14T10:40:17;33.83;;;28.97;;
11921;SDS011;6021;51.182;3.160;2022-11-14T10:42:49;36.60;;;30.70;;
11921;SDS011;6021;51.182;3.160;2022-11-14T10:45:30;37.67;;;30.97;;
11921;SDS011;6021;51.182;3.160;2022-11-14T10:48:06;37.90;;;30.90;;
11921;SDS011;6021;51.182;3.160;2022-11-14T10:50:48;39.47;;;31.43;;
11921;SDS011;6021;51.182;3.160;2022-11-14T10:53:24;40.57;;;32.57;;
11921;SDS011;6021;51.182;3.160;2022-11-14T10:55:56;41.90;;;31.80;;
11921;SDS011;6021;51.182;3.160;2022-11-14T10:58:26;36.77;;;29.40;;
11921;SDS011;6021;51.182;3.160;2022-11-14T11:00:54;36.53;;;28.70;;
11921;SDS011;6021;51.182;3.160;2022-11-14T11:03:38;36.50;;;29.77;;
11921;SDS011;6021;51.182;3.160;2022-11-14T11:06:22;38.37;;;31.03;;
11921;SDS011;6021;51.182;3.160;2022-11-14T11:08:41;34.07;;;28.10;;
11921;SDS011;6021;51.182;3.160;2022-11-14T11:11:27;33.30;;;27.30;;
11921;SDS011;6021;51.182;3.160;2022-11-14T11:13:57;33.63;;;26.93;;
11921;SDS011;6021;51.182;3.160;2022-11-14T11:16:27;34.17;;;26.10;;
11921;SDS011;6021;51.182;3.160;2022-11-14T11:21:52;31.27;;;25.77;;
11921;SDS011;6021;51.182;3.160;2022-11-14T11:24:33;31.40;;;25.97;;
11921;SDS011;6021;51.182;3.160;2022-11-14T11:29:43;35.30;;;28.57;;
11921;SDS011;6021;51.182;3.160;2022-11-14T11:32:17;35.23;;;27.87;;
11921;SDS011;6021;51.182;3.160;2022-11-14T11:34:43;32.47;;;26.77;;
11921;SDS011;6021;51.182;3.160;2022-11-14T11:37:17;34.20;;;27.40;;
11921;SDS011;6021;51.182;3.160;2022-11-14T11:39:53;29.27;;;25.47;;
11921;SDS011;6021;51.182;3.160;2022-11-14T11:42:33;29.07;;;25.87;;
11921;SDS011;6021;51.182;3.160;2022-11-14T11:44:57;27.83;;;24.70;;
11921;SDS011;6021;51.182;3.160;2022-11-14T11:47:28;28.67;;;24.63;;
11921;SDS011;6021;51.182;3.160;2022-11-14T11:49:59;27.63;;;23.73;;
11921;SDS011;6021;51.182;3.160;2022-11-14T11:52:33;27.53;;;24.03;;
11921;SDS011;6021;51.182;3.160;2022-11-14T11:55:21;29.20;;;24.80;;
11921;SDS011;6021;51.182;3.160;2022-11-14T11:58:05;27.70;;;24.03;;
11921;SDS011;6021;51.182;3.160;2022-11-14T12:00:31;27.93;;;23.67;;
11921;SDS011;6021;51.182;3.160;2022-11-14T12:03:00;28.33;;;23.43;;
11921;SDS011;6021;51.182;3.160;2022-11-14T12:05:43;28.40;;;24.30;;
11921;SDS011;6021;51.182;3.160;2022-11-14T12:11:16;31.57;;;26.30;;
11921;SDS011;6021;51.182;3.160;2022-11-14T12:13:51;34.20;;;28.93;;
11921;SDS011;6021;51.182;3.160;2022-11-14T12:22:20;42.20;;;33.50;;
11921;SDS011;6021;51.182;3.160;2022-11-14T12:24:54;38.97;;;32.87;;
11921;SDS011;6021;51.182;3.160;2022-11-14T12:28:01;37.77;;;31.37;;
11921;SDS011;6021;51.182;3.160;2022-11-14T12:30:29;43.27;;;31.80;;
11921;SDS011;6021;51.182;3.160;2022-11-14T12:33:00;41.50;;;32.57;;
11921;SDS011;6021;51.182;3.160;2022-11-14T12:35:36;37.97;;;30.90;;
11921;SDS011;6021;51.182;3.160;2022-11-14T12:38:12;37.27;;;30.00;;
11921;SDS011;6021;51.182;3.160;2022-11-14T12:40:38;38.63;;;32.00;;
11921;SDS011;6021;51.182;3.160;2022-11-14T12:46:06;38.97;;;30.20;;
11921;SDS011;6021;51.182;3.160;2022-11-14T12:48:40;37.33;;;29.13;;
11921;SDS011;6021;51.182;3.160;2022-11-14T12:53:53;34.87;;;28.20;;
11921;SDS011;6021;51.182;3.160;2022-11-14T12:59:25;41.13;;;29.77;;
11921;SDS011;6021;51.182;3.160;2022-11-14T13:13:06;34.20;;;28.20;;
11921;SDS011;6021;51.182;3.160;2022-11-14T13:15:51;36.20;;;28.50;;
11921;SDS011;6021;51.182;3.160;2022-11-14T13:19:00;39.63;;;30.93;;
11921;SDS011;6021;51.182;3.160;2022-11-14T13:27:28;43.53;;;33.07;;
11921;SDS011;6021;51.182;3.160;2022-11-14T13:29:59;46.17;;;33.80;;
11921;SDS011;6021;51.182;3.160;2022-11-14T13:35:19;40.57;;;32.13;;
11921;SDS011;6021;51.182;3.160;2022-11-14T13:41:03;52.27;;;37.57;;
11921;SDS011;6021;51.182;3.160;2022-11-14T13:51:37;37.87;;;29.93;;
11921;SDS011;6021;51.182;3.160;2022-11-14T13:54:10;42.87;;;28.37;;
11921;SDS011;6021;51.182;3.160;2022-11-14T14:04:48;41.57;;;28.77;;
11921;SDS011;6021;51.182;3.160;2022-11-14T14:07:46;34.47;;;26.73;;
11921;SDS011;6021;51.182;3.160;2022-11-14T14:10:14;31.03;;;24.47;;
11921;SDS011;6021;51.182;3.160;2022-11-14T14:12:52;29.67;;;24.40;;
11921;SDS011;6021;51.182;3.160;2022-11-14T14:15:38;38.87;;;25.50;;
11921;SDS011;6021;51.182;3.160;2022-11-14T14:21:04;34.00;;;25.47;;
11921;SDS011;6021;51.182;3.160;2022-11-14T14:29:28;35.80;;;26.40;;
11921;SDS011;6021;51.182;3.160;2022-11-14T14:32:16;45.10;;;27.17;;
11921;SDS011;6021;51.182;3.160;2022-11-14T14:34:40;44.17;;;26.73;;
11921;SDS011;6021;51.182;3.160;2022-11-14T14:37:20;49.57;;;28.87;;
11921;SDS011;6021;51.182;3.160;2022-11-14T14:40:20;31.97;;;26.53;;
11921;SDS011;6021;51.182;3.160;2022-11-14T14:42:37;32.97;;;25.57;;
11921;SDS011;6021;51.182;3.160;2022-11-14T14:45:13;33.93;;;26.03;;
11921;SDS011;6021;51.182;3.160;2022-11-14T14:47:50;28.53;;;24.50;;
11921;SDS011;6021;51.182;3.160;2022-11-14T14:50:19;36.90;;;23.77;;
11921;SDS011;6021;51.182;3.160;2022-11-14T14:52:56;32.50;;;23.73;;
11921;SDS011;6021;51.182;3.160;2022-11-14T14:55:34;29.60;;;23.43;;
11921;SDS011;6021;51.182;3.160;2022-11-14T15:00:55;33.30;;;23.90;;
11921;SDS011;6021;51.182;3.160;2022-11-14T15:03:37;31.43;;;25.07;;
11921;SDS011;6021;51.182;3.160;2022-11-14T15:08:57;30.00;;;25.10;;
11921;SDS011;6021;51.182;3.160;2022-11-14T15:11:28;37.90;;;24.90;;
11921;SDS011;6021;51.182;3.160;2022-11-14T15:13:57;31.63;;;24.07;;
11921;SDS011;6021;51.182;3.160;2022-11-14T15:16:27;34.97;;;25.50;;
11921;SDS011;6021;51.182;3.160;2022-11-14T15:18:56;31.43;;;24.77;;
11921;SDS011;6021;51.182;3.160;2022-11-14T15:21:26;38.07;;;26.73;;
11921;SDS011;6021;51.182;3.160;2022-11-14T15:24:11;35.33;;;25.77;;
11921;SDS011;6021;51.182;3.160;2022-11-14T15:26:31;31.20;;;24.03;;
11921;SDS011;6021;51.182;3.160;2022-11-14T15:29:03;33.17;;;24.83;;
11921;SDS011;6021;51.182;3.160;2022-11-14T15:31:42;32.37;;;24.63;;
11921;SDS011;6021;51.182;3.160;2022-11-14T15:34:24;38.53;;;25.37;;
11921;SDS011;6021;51.182;3.160;2022-11-14T15:39:44;37.07;;;23.97;;
11921;SDS011;6021;51.182;3.160;2022-11-14T15:42:15;41.80;;;26.10;;
11921;SDS011;6021;51.182;3.160;2022-11-14T15:44:48;33.97;;;25.33;;
11921;SDS011;6021;51.182;3.160;2022-11-14T15:47:21;37.87;;;26.90;;
11921;SDS011;6021;51.182;3.160;2022-11-14T15:50:02;39.53;;;26.67;;
11921;SDS011;6021;51.182;3.160;2022-11-14T15:52:31;35.87;;;25.70;;
11921;SDS011;6021;51.182;3.160;2022-11-14T15:55:00;36.00;;;25.43;;
11921;SDS011;6021;51.182;3.160;2022-11-14T15:57:30;38.17;;;27.27;;
11921;SDS011;6021;51.182;3.160;2022-11-14T15:59:59;36.00;;;25.60;;
11921;SDS011;6021;51.182;3.160;2022-11-14T16:02:28;36.10;;;25.50;;
11921;SDS011;6021;51.182;3.160;2022-11-14T16:05:02;43.27;;;27.23;;
11921;SDS011;6021;51.182;3.160;2022-11-14T16:07:31;38.53;;;26.77;;
11921;SDS011;6021;51.182;3.160;2022-11-14T16:09:59;39.53;;;27.30;;
11921;SDS011;6021;51.182;3.160;2022-11-14T16:12:27;40.60;;;26.97;;
11921;SDS011;6021;51.182;3.160;2022-11-14T16:14:56;40.43;;;26.63;;
11921;SDS011;6021;51.182;3.160;2022-11-14T16:17:24;42.30;;;27.83;;
11921;SDS011;6021;51.182;3.160;2022-11-14T16:19:52;43.67;;;27.57;;
11921;SDS011;6021;51.182;3.160;2022-11-14T16:22:21;45.37;;;27.97;;
11921;SDS011;6021;51.182;3.160;2022-11-14T16:24:49;41.87;;;27.87;;
11921;SDS011;6021;51.182;3.160;2022-11-14T16:27:17;45.23;;;27.07;;
11921;SDS011;6021;51.182;3.160;2022-11-14T16:29:45;43.33;;;28.07;;
11921;SDS011;6021;51.182;3.160;2022-11-14T16:32:14;36.90;;;26.37;;
11921;SDS011;6021;51.182;3.160;2022-11-14T16:34:42;36.03;;;25.77;;
11921;SDS011;6021;51.182;3.160;2022-11-14T16:37:11;35.90;;;25.57;;
11921;SDS011;6021;51.182;3.160;2022-11-14T16:39:40;37.77;;;25.40;;
11921;SDS011;6021;51.182;3.160;2022-11-14T16:42:09;40.10;;;26.07;;
11921;SDS011;6021;51.182;3.160;2022-11-14T16:44:38;34.30;;;24.47;;